Terminal Aerodrome Forecast
Issued by NWS

Home | Current Version | Previous Version | Text Only | Print | Product List | Glossary On
Versions: 1 2 3 4 5 6 7 8 9 10 11 12 13 14 15 16 17 18 19 20 21 22 23 24 25
041
FTUS41 KRLX 291800 RRA
TAFCKB
TAF
KCKB 291800Z 2918/3018 30006KT P6SM SCT030
     FM292300 33006KT P6SM SCT035
     FM300200 VRB03KT 4SM BR SKC
     FM300600 VRB03KT 2SM BR SCT001 BKN120
     FM300800 VRB03KT 1/2SM FG BKN001
     FM301200 VRB03KT 4SM HZ BKN100
     FM301700 VRB03KT 6SM -SHRA OVC050=

USA.gov is the U.S. government's official web portal to all federal, state and local government web resources and services.